createdAt,value
2023-04-01T00:00:21.094Z,0.00
2023-04-01T00:01:21.113Z,0.00
2023-04-01T00:02:21.143Z,0.00
2023-04-01T00:03:21.121Z,0.00
2023-04-01T00:04:21.094Z,0.00
2023-04-01T00:05:21.041Z,0.00
2023-04-01T00:06:21.089Z,0.00
2023-04-01T00:07:21.046Z,0.00
2023-04-01T00:08:21.033Z,0.00
2023-04-01T00:09:21.022Z,0.00
2023-04-01T00:10:21.023Z,0.00
2023-04-01T00:11:21.075Z,0.00
2023-04-01T00:12:21.046Z,0.00
2023-04-01T00:13:21.013Z,0.00
2023-04-01T00:14:21.025Z,0.00
2023-04-01T00:15:20.984Z,0.00
2023-04-01T00:16:22.598Z,0.00
2023-04-01T00:17:22.033Z,0.00
2023-04-01T00:18:20.975Z,0.00
2023-04-01T00:19:20.978Z,0.00
2023-04-01T00:20:20.992Z,0.00
2023-04-01T00:21:20.968Z,0.00
2023-04-01T00:22:21.024Z,0.00
2023-04-01T00:23:20.946Z,0.00
2023-04-01T00:24:21.967Z,0.00
2023-04-01T00:25:20.958Z,0.00
2023-04-01T00:26:20.936Z,0.00
2023-04-01T00:27:20.948Z,0.00
2023-04-01T00:28:20.991Z,0.00
2023-04-01T00:29:21.025Z,0.00
2023-04-01T00:30:20.929Z,0.00
2023-04-01T00:31:20.976Z,0.00
2023-04-01T00:32:20.977Z,0.00
2023-04-01T00:33:20.941Z,0.00
2023-04-01T00:34:20.899Z,0.00
2023-04-01T00:35:20.902Z,0.00
2023-04-01T00:36:20.918Z,0.00
2023-04-01T00:37:20.897Z,0.00
2023-04-01T00:38:20.917Z,0.00
2023-04-01T00:39:20.880Z,0.00
2023-04-01T00:40:20.892Z,0.00
2023-04-01T00:41:20.875Z,0.00
2023-04-01T00:42:20.878Z,0.00
2023-04-01T00:43:20.930Z,0.00
2023-04-01T00:44:20.921Z,0.00
2023-04-01T00:45:20.852Z,0.00
2023-04-01T00:46:20.914Z,0.00
2023-04-01T00:47:20.838Z,0.00
2023-04-01T00:48:20.830Z,0.00
2023-04-01T00:49:20.853Z,0.00
2023-04-01T00:50:20.880Z,0.00
2023-04-01T00:51:20.832Z,0.00
2023-04-01T00:52:20.819Z,0.00
2023-04-01T00:53:20.850Z,0.00
2023-04-01T00:54:20.877Z,0.00
2023-04-01T00:55:20.804Z,0.00
2023-04-01T00:56:20.879Z,0.00
2023-04-01T00:57:20.828Z,0.00
2023-04-01T00:58:20.796Z,0.00
2023-04-01T00:59:20.791Z,0.00
2023-04-01T01:00:20.793Z,0.00
2023-04-01T01:01:20.865Z,0.00
2023-04-01T01:02:20.825Z,0.00
2023-04-01T01:03:20.820Z,0.00
2023-04-01T01:04:20.758Z,0.00
2023-04-01T01:05:20.785Z,0.00
2023-04-01T01:06:20.801Z,0.00
2023-04-01T01:07:20.765Z,0.00
2023-04-01T01:08:20.804Z,0.00
2023-04-01T01:09:20.766Z,0.00
2023-04-01T01:10:20.734Z,0.00
2023-04-01T01:11:20.756Z,0.00
2023-04-01T01:12:20.754Z,0.00
2023-04-01T01:13:20.732Z,0.00
2023-04-01T01:14:20.708Z,0.00
2023-04-01T01:15:20.764Z,0.00
2023-04-01T01:16:20.782Z,0.00
2023-04-01T01:17:20.818Z,0.00
2023-04-01T01:18:20.688Z,0.00
2023-04-01T01:19:20.694Z,0.00
2023-04-01T01:20:26.557Z,0.00
2023-04-01T01:21:22.679Z,0.00
2023-04-01T01:22:20.728Z,0.00
2023-04-01T01:23:20.663Z,0.00
2023-04-01T01:24:20.663Z,0.00
2023-04-01T01:25:21.650Z,0.00
2023-04-01T01:26:20.649Z,0.00
2023-04-01T01:27:20.685Z,0.00
2023-04-01T01:28:20.716Z,0.00
2023-04-01T01:29:20.649Z,0.00
2023-04-01T01:30:20.655Z,0.00
2023-04-01T01:31:20.636Z,0.00
2023-04-01T01:32:20.674Z,0.00
2023-04-01T01:33:20.708Z,0.00
2023-04-01T01:34:20.620Z,0.00
2023-04-01T01:35:20.648Z,0.00
2023-04-01T01:36:20.661Z,0.00
2023-04-01T01:37:20.636Z,0.00
2023-04-01T01:38:20.589Z,0.00
2023-04-01T01:39:20.582Z,0.00
2023-04-01T01:40:20.581Z,0.00
2023-04-01T01:41:20.574Z,0.00
2023-04-01T01:42:20.589Z,0.00
2023-04-01T01:43:20.657Z,0.00
2023-04-01T01:44:20.559Z,0.00
2023-04-01T01:45:20.537Z,0.00
2023-04-01T01:46:20.600Z,0.00
2023-04-01T01:47:20.542Z,0.00
2023-04-01T01:48:20.567Z,0.00
2023-04-01T01:49:20.536Z,0.00
2023-04-01T01:50:20.518Z,0.00
2023-04-01T01:51:20.523Z,0.00
2023-04-01T01:52:20.527Z,0.00
2023-04-01T01:53:20.565Z,0.00
2023-04-01T01:54:20.503Z,0.00
2023-04-01T01:55:20.492Z,0.00
2023-04-01T01:56:20.509Z,0.00
2023-04-01T01:57:20.489Z,0.00
2023-04-01T01:58:20.496Z,0.00
2023-04-01T01:59:20.532Z,0.00
2023-04-01T02:00:20.469Z,0.00
2023-04-01T02:01:20.503Z,0.00
2023-04-01T02:02:20.467Z,0.00
2023-04-01T02:03:20.476Z,0.00
2023-04-01T02:04:20.525Z,0.00
2023-04-01T02:05:20.476Z,0.00
2023-04-01T02:06:20.450Z,0.00
2023-04-01T02:07:20.434Z,0.00
2023-04-01T02:08:20.432Z,0.00
2023-04-01T02:09:20.424Z,0.00
2023-04-01T02:10:20.475Z,0.00
2023-04-01T02:11:20.401Z,0.00
2023-04-01T02:12:20.405Z,0.00
2023-04-01T02:13:20.409Z,0.00
2023-04-01T02:14:20.407Z,0.00
2023-04-01T02:15:20.418Z,0.00
2023-04-01T02:16:20.488Z,0.00
2023-04-01T02:17:20.397Z,0.00
2023-04-01T02:18:20.378Z,0.00
2023-04-01T02:19:20.368Z,0.00
2023-04-01T02:20:20.381Z,0.00
2023-04-01T02:21:20.377Z,0.00
2023-04-01T02:22:20.381Z,0.00
2023-04-01T02:23:20.340Z,0.00
2023-04-01T02:24:20.334Z,0.00
2023-04-01T02:25:20.332Z,0.00
2023-04-01T02:26:20.342Z,0.00
2023-04-01T02:27:20.366Z,0.00
2023-04-01T02:28:20.330Z,0.00
2023-04-01T02:29:20.324Z,0.00
2023-04-01T02:30:20.327Z,0.00
2023-04-01T02:31:20.398Z,0.00
2023-04-01T02:32:20.344Z,0.00
2023-04-01T02:33:20.332Z,0.00
2023-04-01T02:34:20.329Z,0.00
2023-04-01T02:35:20.280Z,0.00
2023-04-01T02:36:20.291Z,0.00
2023-04-01T02:37:20.260Z,0.00
2023-04-01T02:38:20.301Z,0.00
2023-04-01T02:39:20.258Z,0.00
2023-04-01T02:40:20.243Z,0.00
2023-04-01T02:41:20.250Z,0.00
2023-04-01T02:42:20.245Z,0.00
2023-04-01T02:43:20.283Z,0.00
2023-04-01T02:44:20.241Z,0.00
2023-04-01T02:45:20.226Z,0.00
2023-04-01T02:46:20.288Z,0.00
2023-04-01T02:47:20.212Z,0.00
2023-04-01T02:48:20.297Z,0.00
2023-04-01T02:49:20.214Z,0.00
2023-04-01T02:50:20.198Z,0.00
2023-04-01T02:51:20.198Z,0.00
2023-04-01T02:52:20.199Z,0.00
2023-04-01T02:53:20.254Z,0.00
2023-04-01T02:54:20.232Z,0.00
2023-04-01T02:55:20.205Z,0.00
2023-04-01T02:56:20.170Z,0.00
2023-04-01T02:57:20.229Z,0.00
2023-04-01T02:58:20.158Z,0.00
2023-04-01T02:59:20.182Z,0.00
2023-04-01T03:00:20.165Z,0.00
2023-04-01T03:01:20.189Z,0.00
2023-04-01T03:02:20.182Z,0.00
2023-04-01T03:03:20.193Z,0.00
2023-04-01T03:04:20.162Z,0.00
2023-04-01T03:05:20.125Z,0.00
2023-04-01T03:06:20.132Z,0.00
2023-04-01T03:07:20.126Z,0.00
2023-04-01T03:08:20.116Z,0.00
2023-04-01T03:09:20.147Z,0.00
2023-04-01T03:10:20.100Z,0.00
2023-04-01T03:11:20.090Z,0.00
2023-04-01T03:12:20.078Z,0.00
2023-04-01T03:13:20.089Z,0.00
2023-04-01T03:14:20.131Z,0.00
2023-04-01T03:15:20.111Z,0.00
2023-04-01T03:16:20.106Z,0.00
2023-04-01T03:17:20.069Z,0.00
2023-04-01T03:18:20.047Z,0.00
2023-04-01T03:19:20.064Z,0.00
2023-04-01T03:20:20.062Z,0.00
2023-04-01T03:21:20.050Z,0.00
2023-04-01T03:22:20.030Z,0.00
2023-04-01T03:23:20.022Z,0.00
2023-04-01T03:24:20.036Z,0.00
2023-04-01T03:25:20.063Z,0.00
2023-04-01T03:26:20.108Z,0.00
2023-04-01T03:27:20.009Z,0.00
2023-04-01T03:28:20.000Z,0.00
2023-04-01T03:29:19.994Z,0.00
2023-04-01T03:30:20.035Z,0.00
2023-04-01T03:31:21.636Z,0.00
2023-04-01T03:32:20.013Z,0.00
2023-04-01T03:33:19.972Z,0.00
2023-04-01T03:34:19.980Z,0.00
2023-04-01T03:35:19.971Z,0.00
2023-04-01T03:36:20.011Z,0.00
2023-04-01T03:37:19.958Z,0.00
2023-04-01T03:38:19.944Z,0.00
2023-04-01T03:39:19.946Z,0.00
2023-04-01T03:40:19.963Z,0.00
2023-04-01T03:41:19.999Z,0.00
2023-04-01T03:42:19.983Z,0.00
2023-04-01T03:43:19.911Z,0.00
2023-04-01T03:44:19.937Z,0.00
2023-04-01T03:45:19.914Z,0.00
2023-04-01T03:46:20.015Z,0.00
2023-04-01T03:47:19.909Z,0.00
2023-04-01T03:48:19.957Z,0.00
2023-04-01T03:49:19.888Z,0.00
2023-04-01T03:50:19.884Z,0.00
2023-04-01T03:51:19.875Z,0.00
2023-04-01T03:52:19.954Z,0.00
2023-04-01T03:53:19.907Z,0.00
2023-04-01T03:54:19.867Z,0.00
2023-04-01T03:55:19.867Z,0.00
2023-04-01T03:56:19.860Z,0.00
2023-04-01T03:57:19.865Z,0.00
2023-04-01T03:58:19.909Z,0.00
2023-04-01T03:59:19.843Z,0.00
2023-04-01T04:00:19.820Z,0.00
2023-04-01T04:01:19.830Z,0.00
2023-04-01T04:02:19.841Z,0.00
2023-04-01T04:03:19.952Z,0.00
2023-04-01T04:04:19.933Z,0.00
2023-04-01T04:05:19.819Z,0.00
2023-04-01T04:06:19.811Z,0.00
2023-04-01T04:07:19.795Z,0.00
2023-04-01T04:08:19.804Z,0.00
2023-04-01T04:09:19.835Z,0.00
2023-04-01T04:10:19.839Z,0.00
2023-04-01T04:11:19.786Z,0.00
2023-04-01T04:12:19.869Z,0.00
2023-04-01T04:13:19.875Z,0.00
2023-04-01T04:14:20.765Z,0.00
2023-04-01T04:15:19.820Z,0.00
2023-04-01T04:16:19.791Z,0.00
2023-04-01T04:17:19.750Z,0.00
2023-04-01T04:18:19.748Z,0.00
2023-04-01T04:19:19.752Z,0.00
2023-04-01T04:20:19.792Z,0.00
2023-04-01T04:21:19.760Z,0.00
2023-04-01T04:22:19.737Z,0.00
2023-04-01T04:23:19.731Z,0.00
2023-04-01T04:24:20.718Z,0.00
2023-04-01T04:25:19.761Z,0.00
2023-04-01T04:26:19.757Z,0.00
2023-04-01T04:27:19.704Z,0.00
2023-04-01T04:28:19.688Z,0.00
2023-04-01T04:29:19.762Z,0.00
2023-04-01T04:30:19.682Z,0.00
2023-04-01T04:31:19.743Z,0.00
2023-04-01T04:32:19.679Z,0.00
2023-04-01T04:33:19.738Z,0.00
2023-04-01T04:34:19.669Z,0.00
2023-04-01T04:35:19.655Z,0.00
2023-04-01T04:36:19.743Z,0.00
2023-04-01T04:37:19.757Z,0.00
2023-04-01T04:38:19.648Z,0.00
2023-04-01T04:39:19.645Z,0.00
2023-04-01T04:40:19.634Z,0.00
2023-04-01T04:41:19.675Z,0.00
2023-04-01T04:42:19.607Z,0.00
2023-04-01T04:43:19.655Z,0.00
2023-04-01T04:44:19.600Z,0.00
2023-04-01T04:45:19.607Z,0.00
2023-04-01T04:46:19.709Z,0.00
2023-04-01T04:47:19.716Z,0.00
2023-04-01T04:48:20.579Z,0.00
2023-04-01T04:49:19.606Z,0.00
2023-04-01T04:50:19.585Z,0.00
2023-04-01T04:51:19.629Z,0.00
2023-04-01T04:52:19.599Z,0.00
2023-04-01T04:53:19.685Z,0.00
2023-04-01T04:54:19.571Z,0.00
2023-04-01T04:55:19.566Z,0.00
2023-04-01T04:56:19.542Z,0.00
2023-04-01T04:57:20.586Z,0.00
2023-04-01T04:58:19.540Z,0.00
2023-04-01T04:59:19.519Z,0.00
2023-04-01T05:00:19.532Z,0.00
2023-04-01T05:01:19.571Z,0.00
2023-04-01T05:02:19.584Z,0.00
2023-04-01T05:03:19.639Z,0.00
2023-04-01T05:04:19.522Z,0.00
2023-04-01T05:05:19.492Z,0.00
2023-04-01T05:06:20.528Z,0.00
2023-04-01T05:07:19.502Z,0.00
2023-04-01T05:08:19.515Z,0.00
2023-04-01T05:09:19.469Z,0.00
2023-04-01T05:10:19.480Z,0.00
2023-04-01T05:11:19.482Z,0.00
2023-04-01T05:12:19.460Z,0.00
2023-04-01T05:13:19.481Z,0.00
2023-04-01T05:14:19.482Z,0.00
2023-04-01T05:15:19.439Z,0.00
2023-04-01T05:16:19.537Z,0.00
2023-04-01T05:17:19.463Z,0.00
2023-04-01T05:18:19.472Z,0.00
2023-04-01T05:19:19.491Z,0.00
2023-04-01T05:20:19.435Z,0.00
2023-04-01T05:21:19.440Z,0.00
2023-04-01T05:22:19.398Z,0.00
2023-04-01T05:23:19.444Z,0.00
2023-04-01T05:24:19.396Z,0.00
2023-04-01T05:25:19.415Z,0.00
2023-04-01T05:26:19.483Z,0.00
2023-04-01T05:27:19.384Z,0.00
2023-04-01T05:28:19.371Z,0.00
2023-04-01T05:29:19.360Z,0.00
2023-04-01T05:30:19.443Z,0.00
2023-04-01T05:31:19.532Z,0.00
2023-04-01T05:32:19.368Z,0.00
2023-04-01T05:33:19.352Z,0.00
2023-04-01T05:34:19.350Z,0.00
2023-04-01T05:35:19.343Z,0.00
2023-04-01T05:36:19.448Z,0.00
2023-04-01T05:37:19.378Z,0.00
2023-04-01T05:38:19.331Z,0.00
2023-04-01T05:39:19.319Z,0.00
2023-04-01T05:40:19.332Z,0.00
2023-04-01T05:41:19.368Z,0.00
2023-04-01T05:42:19.329Z,0.00
2023-04-01T05:43:19.324Z,0.00
2023-04-01T05:44:19.305Z,0.00
2023-04-01T05:45:19.290Z,0.00
2023-04-01T05:46:19.362Z,0.00
2023-04-01T05:47:19.309Z,0.00
2023-04-01T05:48:19.340Z,0.00
2023-04-01T05:49:19.288Z,0.00
2023-04-01T05:50:19.288Z,0.00
2023-04-01T05:51:19.282Z,0.00
2023-04-01T05:52:19.320Z,0.00
2023-04-01T05:53:19.428Z,0.00
2023-04-01T05:54:19.261Z,0.00
2023-04-01T05:55:19.259Z,0.00
2023-04-01T05:56:19.290Z,0.00
2023-04-01T05:57:19.327Z,0.00
2023-04-01T05:58:19.212Z,5.62
2023-04-01T05:59:19.251Z,5.62
2023-04-01T06:00:19.213Z,5.62
2023-04-01T06:01:19.219Z,5.62
2023-04-01T06:02:19.288Z,5.62
2023-04-01T06:03:19.278Z,5.62
2023-04-01T06:04:19.359Z,5.62
2023-04-01T06:05:19.202Z,5.62
2023-04-01T06:06:19.186Z,5.62
2023-04-01T06:07:19.225Z,5.62
2023-04-01T06:08:20.113Z,5.62
2023-04-01T06:09:20.227Z,5.62
2023-04-01T06:10:19.170Z,5.62
2023-04-01T06:11:19.185Z,5.62
2023-04-01T06:12:19.168Z,5.62
2023-04-01T06:13:19.218Z,5.62
2023-04-01T06:14:19.152Z,11.25
2023-04-01T06:15:19.267Z,11.25
2023-04-01T06:16:20.192Z,11.25
2023-04-01T06:17:19.164Z,11.25
2023-04-01T06:18:19.206Z,11.25
2023-04-01T06:19:19.221Z,11.25
2023-04-01T06:20:19.122Z,11.25
2023-04-01T06:21:19.119Z,11.25
2023-04-01T06:22:19.134Z,11.25
2023-04-01T06:23:19.094Z,16.88
2023-04-01T06:24:19.148Z,16.88
2023-04-01T06:25:19.109Z,16.88
2023-04-01T06:26:19.144Z,11.25
2023-04-01T06:27:19.127Z,16.88
2023-04-01T06:28:19.096Z,16.88
2023-04-01T06:29:19.126Z,16.88
2023-04-01T06:30:19.070Z,16.88
2023-04-01T06:31:19.129Z,16.88
2023-04-01T06:32:19.193Z,16.88
2023-04-01T06:33:19.085Z,16.88
2023-04-01T06:34:19.058Z,16.88
2023-04-01T06:35:19.093Z,16.88
2023-04-01T06:36:19.080Z,16.88
2023-04-01T06:37:19.035Z,16.88
2023-04-01T06:38:19.045Z,16.88
2023-04-01T06:39:19.058Z,16.88
2023-04-01T06:40:19.107Z,16.88
2023-04-01T06:41:19.034Z,16.88
2023-04-01T06:42:19.028Z,16.88
2023-04-01T06:43:19.203Z,16.88
2023-04-01T06:44:19.028Z,16.88
2023-04-01T06:45:19.063Z,16.88
2023-04-01T06:46:19.046Z,11.25
2023-04-01T06:47:19.033Z,11.25
2023-04-01T06:48:19.004Z,11.25
2023-04-01T06:49:18.983Z,11.25
2023-04-01T06:50:18.983Z,11.25
2023-04-01T06:51:18.980Z,11.25
2023-04-01T06:52:19.020Z,16.88
2023-04-01T06:53:18.970Z,16.88
2023-04-01T06:54:18.983Z,16.88
2023-04-01T06:55:19.580Z,16.88
2023-04-01T06:56:18.968Z,16.88
2023-04-01T06:57:19.277Z,16.88
2023-04-01T06:58:18.952Z,16.88
2023-04-01T06:59:19.920Z,16.88
2023-04-01T07:00:18.935Z,16.88
2023-04-01T07:01:19.943Z,22.50
2023-04-01T07:02:18.954Z,22.50
2023-04-01T07:03:18.908Z,22.50
2023-04-01T07:04:18.966Z,22.50
2023-04-01T07:05:18.889Z,22.50
2023-04-01T07:06:18.909Z,22.50
2023-04-01T07:07:18.937Z,22.50
2023-04-01T07:08:18.886Z,22.50
2023-04-01T07:09:18.881Z,28.12
2023-04-01T07:10:18.864Z,28.12
2023-04-01T07:11:18.881Z,28.12
2023-04-01T07:12:18.901Z,28.12
2023-04-01T07:13:18.878Z,28.12
2023-04-01T07:14:18.860Z,39.38
2023-04-01T07:15:18.855Z,33.75
2023-04-01T07:16:18.988Z,33.75
2023-04-01T07:17:18.907Z,39.38
2023-04-01T07:18:19.853Z,33.75
2023-04-01T07:19:18.837Z,33.75
2023-04-01T07:20:18.832Z,39.38
2023-04-01T07:21:18.834Z,39.38
2023-04-01T07:22:18.827Z,39.38
2023-04-01T07:23:18.847Z,39.38
2023-04-01T07:24:18.820Z,39.38
2023-04-01T07:25:18.843Z,45.00
2023-04-01T07:26:18.792Z,45.00
2023-04-01T07:27:18.802Z,39.38
2023-04-01T07:28:18.847Z,39.38
2023-04-01T07:29:18.801Z,39.38
2023-04-01T07:30:18.780Z,39.38
2023-04-01T07:31:18.803Z,45.00
2023-04-01T07:32:18.769Z,39.38
2023-04-01T07:33:18.777Z,33.75
2023-04-01T07:34:18.760Z,39.38
2023-04-01T07:35:18.822Z,39.38
2023-04-01T07:36:18.743Z,45.00
2023-04-01T07:37:18.723Z,45.00
2023-04-01T07:38:18.804Z,45.00
2023-04-01T07:39:18.761Z,39.38
2023-04-01T07:40:18.713Z,39.38
2023-04-01T07:41:19.232Z,39.38
2023-04-01T07:42:19.756Z,39.38
2023-04-01T07:43:18.702Z,45.00
2023-04-01T07:44:18.808Z,45.00
2023-04-01T07:45:18.743Z,45.00
2023-04-01T07:46:18.777Z,45.00
2023-04-01T07:47:18.740Z,39.38
2023-04-01T07:48:18.667Z,39.38
2023-04-01T07:49:18.688Z,39.38
2023-04-01T07:50:18.682Z,39.38
2023-04-01T07:51:18.657Z,39.38
2023-04-01T07:52:18.672Z,45.00
2023-04-01T07:53:18.671Z,45.00
2023-04-01T07:54:18.707Z,45.00
2023-04-01T07:55:18.646Z,50.62
2023-04-01T07:56:18.665Z,50.62
2023-04-01T07:57:18.644Z,50.62
2023-04-01T07:58:18.635Z,50.62
2023-04-01T07:59:18.627Z,50.62
2023-04-01T08:00:18.630Z,50.62
2023-04-01T08:01:18.625Z,50.62
2023-04-01T08:02:18.724Z,50.62
2023-04-01T08:03:18.721Z,50.62
2023-04-01T08:04:18.665Z,50.62
2023-04-01T08:05:18.586Z,45.00
2023-04-01T08:06:18.614Z,45.00
2023-04-01T08:07:18.608Z,45.00
2023-04-01T08:08:18.588Z,45.00
2023-04-01T08:09:18.550Z,50.62
2023-04-01T08:10:18.646Z,50.62
2023-04-01T08:11:18.552Z,50.62
2023-04-01T08:12:18.556Z,50.62
2023-04-01T08:13:18.527Z,50.62
2023-04-01T08:14:18.530Z,50.62
2023-04-01T08:15:18.508Z,56.25
2023-04-01T08:16:18.754Z,50.62
2023-04-01T08:17:18.526Z,50.62
2023-04-01T08:18:18.524Z,45.00
2023-04-01T08:19:18.580Z,45.00
2023-04-01T08:20:18.485Z,50.62
2023-04-01T08:21:18.489Z,50.62
2023-04-01T08:22:18.463Z,50.62
2023-04-01T08:23:18.479Z,56.25
2023-04-01T08:24:19.767Z,50.62
2023-04-01T08:25:18.465Z,50.62
2023-04-01T08:26:18.448Z,50.62
2023-04-01T08:27:18.449Z,50.62
2023-04-01T08:28:18.464Z,50.62
2023-04-01T08:29:18.422Z,50.62
2023-04-01T08:30:18.412Z,50.62
2023-04-01T08:31:18.480Z,50.62
2023-04-01T08:32:18.415Z,45.00
2023-04-01T08:33:18.423Z,45.00
2023-04-01T08:34:18.418Z,39.38
2023-04-01T08:35:18.409Z,39.38
2023-04-01T08:36:18.452Z,39.38
2023-04-01T08:37:18.394Z,39.38
2023-04-01T08:38:18.495Z,50.62
2023-04-01T08:39:18.432Z,50.62
2023-04-01T08:40:18.352Z,56.25
2023-04-01T08:41:18.333Z,56.25
2023-04-01T08:42:18.341Z,50.62
2023-04-01T08:43:18.328Z,50.62
2023-04-01T08:44:18.379Z,56.25
2023-04-01T08:45:18.312Z,61.88
2023-04-01T08:46:18.435Z,61.88
2023-04-01T08:47:18.307Z,61.88
2023-04-01T08:48:18.371Z,61.88
2023-04-01T08:49:18.383Z,61.88
2023-04-01T08:50:18.299Z,56.25
2023-04-01T08:51:18.363Z,56.25
2023-04-01T08:52:18.341Z,56.25
2023-04-01T08:53:18.278Z,56.25
2023-04-01T08:54:18.323Z,56.25
2023-04-01T08:55:18.266Z,50.62
2023-04-01T08:56:18.274Z,50.62
2023-04-01T08:57:18.274Z,50.62
2023-04-01T08:58:18.235Z,50.62
2023-04-01T08:59:18.236Z,50.62
2023-04-01T09:00:18.228Z,50.62
2023-04-01T09:01:18.270Z,50.62
2023-04-01T09:02:18.248Z,56.25
2023-04-01T09:03:18.298Z,56.25
2023-04-01T09:04:18.236Z,61.88
2023-04-01T09:05:18.176Z,56.25
2023-04-01T09:06:18.281Z,50.62
2023-04-01T09:07:18.496Z,50.62
2023-04-01T09:08:18.214Z,45.00
2023-04-01T09:09:18.150Z,45.00
2023-04-01T09:10:18.156Z,45.00
2023-04-01T09:11:18.397Z,50.62
2023-04-01T09:12:18.172Z,50.62
2023-04-01T09:13:18.123Z,45.00
2023-04-01T09:14:18.116Z,45.00
2023-04-01T09:15:18.137Z,45.00
2023-04-01T09:16:18.160Z,45.00
2023-04-01T09:17:18.166Z,45.00
2023-04-01T09:18:18.094Z,39.38
2023-04-01T09:19:18.086Z,39.38
2023-04-01T09:20:18.066Z,39.38
2023-04-01T09:21:18.074Z,39.38
2023-04-01T09:22:18.101Z,39.38
2023-04-01T09:23:18.101Z,45.00
2023-04-01T09:24:18.057Z,50.62
2023-04-01T09:25:18.043Z,50.62
2023-04-01T09:26:18.056Z,50.62
2023-04-01T09:27:18.069Z,56.25
2023-04-01T09:28:18.047Z,61.88
2023-04-01T09:29:18.067Z,67.50
2023-04-01T09:30:18.015Z,67.50
2023-04-01T09:31:18.015Z,61.88
2023-04-01T09:32:18.011Z,61.88
2023-04-01T09:33:18.082Z,56.25
2023-04-01T09:34:18.028Z,56.25
2023-04-01T09:35:17.970Z,56.25
2023-04-01T09:36:18.036Z,50.62
2023-04-01T09:37:17.972Z,50.62
2023-04-01T09:38:18.035Z,50.62
2023-04-01T09:39:17.964Z,50.62
2023-04-01T09:40:17.954Z,50.62
2023-04-01T09:41:17.943Z,50.62
2023-04-01T09:42:18.069Z,50.62
2023-04-01T09:43:17.954Z,50.62
2023-04-01T09:44:17.923Z,50.62
2023-04-01T09:45:18.066Z,50.62
2023-04-01T09:46:18.001Z,50.62
2023-04-01T09:47:18.030Z,56.25
2023-04-01T09:48:17.906Z,56.25
2023-04-01T09:49:17.877Z,61.88
2023-04-01T09:50:18.024Z,67.50
2023-04-01T09:51:17.905Z,67.50
2023-04-01T09:52:17.937Z,67.50
2023-04-01T09:53:17.846Z,73.12
2023-04-01T09:54:17.868Z,73.12
2023-04-01T09:55:17.901Z,73.12
2023-04-01T09:56:17.833Z,78.75
2023-04-01T09:57:17.931Z,78.75
2023-04-01T09:58:17.813Z,73.12
2023-04-01T09:59:17.829Z,90.00
2023-04-01T10:00:17.900Z,84.38
2023-04-01T10:01:17.847Z,95.62
2023-04-01T10:02:17.786Z,95.62
2023-04-01T10:03:17.784Z,101.25
2023-04-01T10:04:17.836Z,129.38
2023-04-01T10:05:17.794Z,101.25
2023-04-01T10:06:17.833Z,118.12
2023-04-01T10:07:17.768Z,106.88
2023-04-01T10:08:17.730Z,95.62
2023-04-01T10:09:17.780Z,84.38
2023-04-01T10:10:17.852Z,84.38
2023-04-01T10:11:17.766Z,73.12
2023-04-01T10:12:17.761Z,73.12
2023-04-01T10:13:17.710Z,67.50
2023-04-01T10:14:17.730Z,67.50
2023-04-01T10:15:17.683Z,73.12
2023-04-01T10:16:17.790Z,135.00
2023-04-01T10:17:17.672Z,90.00
2023-04-01T10:18:17.676Z,78.75
2023-04-01T10:19:17.763Z,67.50
2023-04-01T10:20:17.664Z,67.50
2023-04-01T10:21:17.619Z,67.50
2023-04-01T10:22:17.628Z,67.50
2023-04-01T10:23:17.650Z,61.88
2023-04-01T10:24:17.656Z,67.50
2023-04-01T10:25:18.613Z,67.50
2023-04-01T10:26:17.597Z,78.75
2023-04-01T10:27:17.646Z,61.88
2023-04-01T10:28:17.585Z,61.88
2023-04-01T10:29:17.785Z,61.88
2023-04-01T10:30:17.584Z,56.25
2023-04-01T10:31:17.637Z,45.00
2023-04-01T10:32:17.559Z,45.00
2023-04-01T10:33:17.559Z,45.00
2023-04-01T10:34:17.732Z,45.00
2023-04-01T10:35:17.550Z,45.00
2023-04-01T10:36:18.054Z,45.00
2023-04-01T10:37:17.695Z,50.62
2023-04-01T10:38:18.039Z,56.25
2023-04-01T10:39:17.530Z,61.88
2023-04-01T10:40:17.508Z,67.50
2023-04-01T10:41:17.485Z,67.50
2023-04-01T10:42:18.127Z,61.88
2023-04-01T10:43:17.871Z,61.88
2023-04-01T10:44:17.486Z,61.88
2023-04-01T10:45:17.477Z,56.25
2023-04-01T10:46:17.754Z,56.25
2023-04-01T10:47:17.446Z,56.25
2023-04-01T10:48:17.464Z,61.88
2023-04-01T10:49:17.491Z,61.88
2023-04-01T10:50:17.445Z,61.88
2023-04-01T10:51:17.486Z,67.50
2023-04-01T10:52:17.531Z,73.12
2023-04-01T10:53:17.401Z,73.12
2023-04-01T10:54:17.412Z,73.12
2023-04-01T10:55:17.584Z,78.75
2023-04-01T10:56:17.391Z,78.75
2023-04-01T10:57:17.722Z,73.12
2023-04-01T10:58:17.340Z,73.12
2023-04-01T10:59:17.385Z,73.12
2023-04-01T11:00:17.587Z,73.12
2023-04-01T11:01:17.386Z,73.12
2023-04-01T11:02:17.472Z,73.12
2023-04-01T11:03:17.619Z,73.12
2023-04-01T11:04:17.320Z,67.50
2023-04-01T11:05:20.197Z,67.50
2023-04-01T11:06:17.308Z,67.50
2023-04-01T11:07:17.311Z,61.88
2023-04-01T11:08:17.301Z,61.88
2023-04-01T11:09:17.269Z,56.25
2023-04-01T11:10:17.318Z,56.25
2023-04-01T11:11:17.241Z,56.25
2023-04-01T11:12:17.268Z,50.62
2023-04-01T11:13:17.301Z,50.62
2023-04-01T11:14:17.336Z,45.00
2023-04-01T11:15:17.264Z,45.00
2023-04-01T11:16:18.368Z,45.00
2023-04-01T11:17:18.209Z,45.00
2023-04-01T11:18:17.212Z,39.38
2023-04-01T11:19:18.189Z,39.38
2023-04-01T11:20:17.173Z,39.38
2023-04-01T11:21:17.182Z,39.38
2023-04-01T11:22:17.200Z,39.38
2023-04-01T11:23:17.174Z,33.75
2023-04-01T11:24:17.147Z,33.75
2023-04-01T11:25:17.130Z,39.38
2023-04-01T11:26:18.164Z,39.38
2023-04-01T11:27:17.200Z,39.38
2023-04-01T11:28:17.133Z,39.38
2023-04-01T11:29:17.538Z,45.00
2023-04-01T11:30:17.103Z,50.62
2023-04-01T11:31:17.122Z,50.62
2023-04-01T11:32:17.115Z,50.62
2023-04-01T11:33:19.424Z,56.25
2023-04-01T11:34:17.097Z,56.25
2023-04-01T11:35:17.063Z,56.25
2023-04-01T11:36:17.486Z,56.25
2023-04-01T11:37:17.102Z,50.62
2023-04-01T11:38:17.050Z,45.00
2023-04-01T11:39:17.032Z,50.62
2023-04-01T11:40:17.062Z,45.00
2023-04-01T11:41:17.019Z,45.00
2023-04-01T11:42:17.019Z,39.38
2023-04-01T11:43:26.113Z,33.75
2023-04-01T11:44:19.041Z,33.75
2023-04-01T11:45:17.020Z,33.75
2023-04-01T11:46:17.071Z,28.12
2023-04-01T11:47:16.975Z,28.12
2023-04-01T11:48:17.047Z,28.12
2023-04-01T11:49:16.951Z,28.12
2023-04-01T11:50:16.984Z,28.12
2023-04-01T11:51:16.926Z,28.12
2023-04-01T11:52:16.943Z,28.12
2023-04-01T11:53:16.927Z,33.75
2023-04-01T11:54:16.912Z,33.75
2023-04-01T11:55:16.939Z,33.75
2023-04-01T11:56:16.971Z,33.75
2023-04-01T11:57:16.928Z,28.12
2023-04-01T11:58:16.875Z,28.12
2023-04-01T11:59:16.917Z,33.75
2023-04-01T12:00:16.900Z,33.75
2023-04-01T12:01:16.876Z,33.75
2023-04-01T12:02:18.256Z,33.75
2023-04-01T12:03:17.537Z,33.75
2023-04-01T12:04:16.892Z,28.12
2023-04-01T12:05:16.866Z,28.12
2023-04-01T12:06:17.398Z,28.12
2023-04-01T12:07:16.886Z,28.12
2023-04-01T12:08:17.148Z,28.12
2023-04-01T12:09:16.833Z,22.50
2023-04-01T12:10:16.824Z,22.50
2023-04-01T12:11:16.772Z,16.88
2023-04-01T12:12:16.818Z,22.50
2023-04-01T12:13:16.810Z,22.50
2023-04-01T12:14:16.756Z,22.50
2023-04-01T12:15:16.745Z,22.50
2023-04-01T12:16:16.830Z,22.50
2023-04-01T12:17:16.734Z,22.50
2023-04-01T12:18:16.756Z,22.50
2023-04-01T12:19:16.737Z,22.50
2023-04-01T12:20:16.847Z,28.12
2023-04-01T12:21:16.761Z,28.12
2023-04-01T12:22:16.712Z,28.12
2023-04-01T12:23:16.726Z,28.12
2023-04-01T12:24:16.713Z,28.12
2023-04-01T12:25:16.709Z,28.12
2023-04-01T12:26:16.690Z,28.12
2023-04-01T12:27:16.694Z,28.12
2023-04-01T12:28:16.691Z,28.12
2023-04-01T12:29:16.660Z,28.12
2023-04-01T12:30:16.637Z,28.12
2023-04-01T12:31:16.662Z,28.12
2023-04-01T12:32:16.750Z,28.12
2023-04-01T12:33:16.684Z,28.12
2023-04-01T12:34:16.650Z,33.75
2023-04-01T12:35:16.629Z,33.75
2023-04-01T12:36:16.637Z,33.75
2023-04-01T12:37:16.653Z,33.75
2023-04-01T12:38:16.598Z,33.75
2023-04-01T12:39:16.599Z,33.75
2023-04-01T12:40:16.609Z,33.75
2023-04-01T12:41:16.562Z,33.75
2023-04-01T12:42:16.546Z,33.75
2023-04-01T12:43:16.673Z,33.75
2023-04-01T12:44:16.600Z,33.75
2023-04-01T12:45:16.574Z,33.75
2023-04-01T12:46:16.627Z,33.75
2023-04-01T12:47:16.551Z,33.75
2023-04-01T12:48:16.548Z,33.75
2023-04-01T12:49:16.837Z,33.75
2023-04-01T12:50:16.502Z,33.75
2023-04-01T12:51:16.486Z,33.75
2023-04-01T12:52:16.494Z,33.75
2023-04-01T12:53:16.470Z,33.75
2023-04-01T12:54:16.495Z,33.75
2023-04-01T12:55:16.450Z,39.38
2023-04-01T12:56:16.443Z,39.38
2023-04-01T12:57:16.594Z,39.38
2023-04-01T12:58:16.461Z,39.38
2023-04-01T12:59:19.980Z,39.38
2023-04-01T13:00:18.338Z,45.00
2023-04-01T13:01:16.451Z,45.00
2023-04-01T13:02:16.425Z,45.00
2023-04-01T13:03:16.427Z,45.00
2023-04-01T13:04:16.507Z,45.00